createdAt,value
2018-06-05T00:00:15.028Z,10.33
2018-06-05T00:02:43.407Z,9.93
2018-06-05T00:05:11.797Z,10.50
2018-06-05T00:07:40.157Z,9.77
2018-06-05T00:10:08.584Z,11.53
2018-06-05T00:12:37.061Z,11.33
2018-06-05T00:15:05.490Z,11.87
2018-06-05T00:17:33.884Z,13.10
2018-06-05T00:20:02.293Z,13.77
2018-06-05T00:22:30.765Z,13.33
2018-06-05T00:24:59.250Z,13.83
2018-06-05T00:27:27.715Z,14.10
2018-06-05T00:29:56.118Z,14.47
2018-06-05T00:32:24.574Z,13.00
2018-06-05T00:34:52.979Z,13.13
2018-06-05T00:37:21.425Z,12.77
2018-06-05T00:39:49.834Z,12.30
2018-06-05T00:42:18.298Z,12.30
2018-06-05T00:44:46.690Z,12.77
2018-06-05T00:47:15.146Z,13.20
2018-06-05T00:49:43.552Z,14.40
2018-06-05T00:52:12.049Z,13.37
2018-06-05T00:54:40.550Z,14.03
2018-06-05T00:57:08.976Z,13.68
2018-06-05T00:59:37.377Z,13.20
2018-06-05T01:02:05.895Z,15.33
2018-06-05T01:04:34.381Z,13.58
2018-06-05T01:07:02.906Z,14.07
2018-06-05T01:09:31.282Z,12.83
2018-06-05T01:11:59.763Z,13.00
2018-06-05T01:14:28.181Z,12.10
2018-06-05T01:16:56.650Z,13.07
2018-06-05T01:19:25.112Z,12.70
2018-06-05T01:21:53.692Z,12.80
2018-06-05T01:24:22.080Z,12.43
2018-06-05T01:26:50.457Z,12.77
2018-06-05T01:29:18.809Z,11.73
2018-06-05T01:31:47.234Z,12.00
2018-06-05T01:34:15.682Z,12.53
2018-06-05T01:36:44.114Z,12.93
2018-06-05T01:39:12.544Z,12.07
2018-06-05T01:41:40.950Z,11.83
2018-06-05T01:44:09.405Z,12.57
2018-06-05T01:46:37.802Z,12.77
2018-06-05T01:49:06.295Z,13.30
2018-06-05T01:51:34.766Z,14.40
2018-06-05T01:54:03.126Z,16.07
2018-06-05T01:56:31.537Z,14.53
2018-06-05T01:58:59.892Z,15.70
2018-06-05T02:01:28.323Z,14.70
2018-06-05T02:03:56.770Z,15.17
2018-06-05T02:06:25.245Z,15.03
2018-06-05T02:08:53.711Z,15.50
2018-06-05T02:11:22.213Z,16.00
2018-06-05T02:13:50.678Z,14.87
2018-06-05T02:16:19.094Z,16.07
2018-06-05T02:18:47.540Z,16.03
2018-06-05T02:21:15.926Z,16.50
2018-06-05T02:23:44.438Z,16.93
2018-06-05T02:26:12.954Z,16.13
2018-06-05T02:28:41.389Z,15.93
2018-06-05T02:31:09.897Z,15.40
2018-06-05T02:33:38.317Z,16.57
2018-06-05T02:36:06.734Z,15.47
2018-06-05T02:38:35.195Z,15.87
2018-06-05T02:41:03.605Z,16.60
2018-06-05T02:43:31.999Z,16.50
2018-06-05T02:46:00.419Z,17.40
2018-06-05T02:48:28.842Z,17.17
2018-06-05T02:50:57.316Z,16.47
2018-06-05T02:53:25.785Z,17.27
2018-06-05T02:55:54.287Z,16.55
2018-06-05T02:58:22.745Z,16.60
2018-06-05T03:00:51.438Z,20.13
2018-06-05T03:03:19.931Z,18.07
2018-06-05T03:05:48.467Z,18.47
2018-06-05T03:08:16.898Z,17.00
2018-06-05T03:10:45.354Z,17.47
2018-06-05T03:13:13.738Z,16.25
2018-06-05T03:15:42.111Z,16.87
2018-06-05T03:18:10.506Z,16.20
2018-06-05T03:20:38.878Z,16.67
2018-06-05T03:23:07.385Z,17.13
2018-06-05T03:25:35.813Z,17.07
2018-06-05T03:28:04.225Z,17.67
2018-06-05T03:30:32.841Z,17.90
2018-06-05T03:33:01.410Z,17.53
2018-06-05T03:35:29.862Z,18.03
2018-06-05T03:37:58.247Z,18.85
2018-06-05T03:40:26.747Z,19.23
2018-06-05T03:42:55.223Z,18.63
2018-06-05T03:45:23.692Z,18.27
2018-06-05T03:47:52.208Z,19.97
2018-06-05T03:50:20.633Z,20.70
2018-06-05T03:52:49.165Z,22.30
2018-06-05T03:55:17.629Z,20.30
2018-06-05T03:57:46.081Z,21.07
2018-06-05T04:00:14.491Z,20.47
2018-06-05T04:02:42.973Z,22.40
2018-06-05T04:05:11.438Z,20.83
2018-06-05T04:07:39.905Z,19.07
2018-06-05T04:10:08.318Z,19.77
2018-06-05T04:12:36.774Z,18.83
2018-06-05T04:15:05.390Z,17.60
2018-06-05T04:17:33.897Z,16.43
2018-06-05T04:20:02.412Z,16.80
2018-06-05T04:22:30.839Z,15.87
2018-06-05T04:24:59.293Z,16.27
2018-06-05T04:27:27.864Z,15.80
2018-06-05T04:29:56.341Z,15.70
2018-06-05T04:32:24.716Z,15.90
2018-06-05T04:34:53.152Z,16.73
2018-06-05T04:37:21.575Z,14.87
2018-06-05T04:39:49.978Z,14.47
2018-06-05T04:42:18.444Z,14.30
2018-06-05T04:44:46.846Z,14.70
2018-06-05T04:47:15.298Z,14.20
2018-06-05T04:49:43.726Z,14.43
2018-06-05T04:52:12.161Z,13.43
2018-06-05T04:54:40.557Z,13.93
2018-06-05T04:57:09.037Z,12.23
2018-06-05T04:59:37.406Z,12.27
2018-06-05T05:02:05.921Z,12.50
2018-06-05T05:04:34.398Z,11.97
2018-06-05T05:07:02.858Z,12.17
2018-06-05T05:09:31.246Z,11.57
2018-06-05T05:11:59.762Z,12.03
2018-06-05T05:14:28.229Z,10.83
2018-06-05T05:16:56.684Z,10.57
2018-06-05T05:19:25.066Z,9.60
2018-06-05T05:21:53.580Z,10.40
2018-06-05T05:24:22.018Z,9.30
2018-06-05T05:26:50.466Z,8.97
2018-06-05T05:29:18.873Z,8.90
2018-06-05T05:31:47.277Z,9.10
2018-06-05T05:34:15.730Z,8.40
2018-06-05T05:36:44.810Z,8.60
2018-06-05T05:39:13.539Z,8.80
2018-06-05T05:41:41.930Z,8.33
2018-06-05T05:44:10.371Z,8.23
2018-06-05T05:46:38.742Z,8.58
2018-06-05T05:49:07.153Z,8.40
2018-06-05T05:51:35.626Z,7.30
2018-06-05T05:54:04.029Z,7.33
2018-06-05T05:56:32.486Z,6.50
2018-06-05T05:59:01.003Z,7.20
2018-06-05T06:01:29.483Z,5.85
2018-06-05T06:03:57.918Z,6.58
2018-06-05T06:06:26.323Z,5.83
2018-06-05T06:08:54.842Z,6.53
2018-06-05T06:11:23.342Z,5.83
2018-06-05T06:13:51.740Z,6.45
2018-06-05T06:16:20.137Z,6.62
2018-06-05T06:18:48.502Z,6.20
2018-06-05T06:21:16.910Z,5.55
2018-06-05T06:23:45.359Z,5.95
2018-06-05T06:26:13.796Z,5.90
2018-06-05T06:28:42.425Z,5.80
2018-06-05T06:31:10.803Z,5.80
2018-06-05T06:33:39.205Z,5.55
2018-06-05T06:36:07.670Z,5.30
2018-06-05T06:38:36.084Z,5.60
2018-06-05T06:41:04.763Z,6.50
2018-06-05T06:43:35.746Z,5.43
2018-06-05T06:46:08.370Z,5.83
2018-06-05T06:48:40.338Z,6.05
2018-06-05T06:51:12.388Z,6.35
2018-06-05T06:53:42.519Z,5.67
2018-06-05T06:56:13.252Z,5.22
2018-06-05T06:58:43.984Z,5.28
2018-06-05T07:01:15.733Z,5.75
2018-06-05T07:03:46.884Z,5.28
2018-06-05T07:06:17.403Z,5.42
2018-06-05T07:08:47.424Z,6.05
2018-06-05T07:11:18.356Z,5.80
2018-06-05T07:13:48.381Z,5.37
2018-06-05T07:16:18.340Z,5.03
2018-06-05T07:18:48.408Z,5.00
2018-06-05T07:21:18.119Z,5.72
2018-06-05T07:23:48.465Z,5.75
2018-06-05T07:26:19.590Z,6.42
2018-06-05T07:28:51.891Z,6.03
2018-06-05T07:31:23.599Z,6.17
2018-06-05T07:33:55.044Z,6.20
2018-06-05T07:36:25.786Z,5.65
2018-06-05T07:38:57.234Z,6.83
2018-06-05T07:41:30.015Z,6.90
2018-06-05T07:44:02.787Z,6.47
2018-06-05T07:46:34.577Z,6.72
2018-06-05T07:49:05.488Z,6.45
2018-06-05T07:51:38.845Z,6.75
2018-06-05T07:54:09.823Z,7.35
2018-06-05T07:56:41.260Z,7.10
2018-06-05T07:59:13.024Z,6.50
2018-06-05T08:01:43.753Z,7.08
2018-06-05T08:04:15.398Z,5.30
2018-06-05T08:06:46.855Z,6.08
2018-06-05T08:09:18.630Z,6.30
2018-06-05T08:11:50.475Z,6.37
2018-06-05T08:14:21.917Z,5.87
2018-06-05T08:16:54.294Z,6.25
2018-06-05T08:19:25.529Z,6.30
2018-06-05T08:21:56.472Z,5.90
2018-06-05T08:24:27.729Z,5.67
2018-06-05T08:27:00.116Z,6.08
2018-06-05T08:29:31.735Z,5.80
2018-06-05T08:32:03.026Z,6.70
2018-06-05T08:34:34.121Z,5.58
2018-06-05T08:37:07.311Z,6.05
2018-06-05T08:39:38.885Z,5.97
2018-06-05T08:42:09.501Z,6.17
2018-06-05T08:44:40.439Z,5.62
2018-06-05T08:47:10.865Z,5.62
2018-06-05T08:49:41.748Z,5.67
2018-06-05T08:52:12.634Z,6.60
2018-06-05T08:54:43.775Z,6.15
2018-06-05T08:57:15.745Z,6.20
2018-06-05T08:59:46.158Z,6.08
2018-06-05T09:02:17.293Z,5.87
2018-06-05T09:04:47.114Z,5.75
2018-06-05T09:07:17.759Z,5.92
2018-06-05T09:09:48.784Z,6.03
2018-06-05T09:12:18.718Z,5.60
2018-06-05T09:14:49.532Z,6.15
2018-06-05T09:17:21.697Z,6.40
2018-06-05T09:19:52.633Z,6.37
2018-06-05T09:22:24.083Z,5.83
2018-06-05T09:24:55.116Z,5.83
2018-06-05T09:27:27.178Z,5.83
2018-06-05T09:29:59.961Z,6.78
2018-06-05T09:32:30.898Z,5.28
2018-06-05T09:35:03.276Z,5.83
2018-06-05T09:37:34.683Z,4.80
2018-06-05T09:40:05.650Z,5.90
2018-06-05T09:42:37.132Z,6.20
2018-06-05T09:45:08.356Z,6.05
2018-06-05T09:47:40.439Z,5.58
2018-06-05T09:50:11.774Z,5.95
2018-06-05T09:52:42.482Z,5.80
2018-06-05T09:55:14.246Z,6.03
2018-06-05T09:57:46.759Z,5.25
2018-06-05T10:00:22.565Z,4.40
2018-06-05T10:02:53.707Z,4.75
2018-06-05T10:05:24.951Z,5.30
2018-06-05T10:07:57.114Z,4.78
2018-06-05T10:10:28.045Z,4.60
2018-06-05T10:12:59.282Z,4.83
2018-06-05T10:16:01.873Z,4.10
2018-06-05T10:18:34.655Z,3.72
2018-06-05T10:21:05.825Z,4.62
2018-06-05T10:23:37.038Z,4.72
2018-06-05T10:26:07.412Z,4.30
2018-06-05T10:28:38.088Z,3.83
2018-06-05T10:31:08.821Z,3.52
2018-06-05T10:33:39.157Z,3.72
2018-06-05T10:36:09.566Z,3.10
2018-06-05T10:38:39.887Z,3.60
2018-06-05T10:41:11.028Z,3.83
2018-06-05T10:43:39.977Z,3.65
2018-06-05T10:46:08.400Z,3.58
2018-06-05T10:48:36.855Z,3.95
2018-06-05T10:51:05.325Z,3.40
2018-06-05T10:53:33.763Z,3.47
2018-06-05T10:56:02.246Z,3.62
2018-06-05T10:58:30.862Z,3.70
2018-06-05T11:00:59.447Z,3.85
2018-06-05T11:03:28.162Z,3.87
2018-06-05T11:05:56.610Z,3.55
2018-06-05T11:08:25.034Z,2.90
2018-06-05T11:10:53.487Z,4.00
2018-06-05T11:13:21.971Z,3.55
2018-06-05T11:15:50.432Z,3.30
2018-06-05T11:18:18.969Z,3.15
2018-06-05T11:20:47.404Z,3.00
2018-06-05T11:23:15.917Z,3.08
2018-06-05T11:25:44.354Z,3.40
2018-06-05T11:28:13.093Z,3.37
2018-06-05T11:30:41.606Z,3.40
2018-06-05T11:33:10.287Z,3.40
2018-06-05T11:35:38.720Z,3.15
2018-06-05T11:38:07.164Z,3.60
2018-06-05T11:40:35.718Z,6.03
2018-06-05T11:43:05.341Z,3.52
2018-06-05T11:45:33.781Z,3.12
2018-06-05T11:48:02.451Z,3.25
2018-06-05T11:50:30.992Z,3.58
2018-06-05T11:52:59.546Z,3.37
2018-06-05T11:55:28.011Z,3.77
2018-06-05T11:57:56.653Z,3.25
2018-06-05T12:00:25.145Z,3.30
2018-06-05T12:02:53.634Z,3.15
2018-06-05T12:05:22.102Z,3.30
2018-06-05T12:07:50.573Z,3.22
2018-06-05T12:10:19.038Z,3.35
2018-06-05T12:12:47.628Z,4.08
2018-06-05T12:15:17.053Z,3.10
2018-06-05T12:17:45.568Z,3.45
2018-06-05T12:20:15.158Z,3.10
2018-06-05T12:22:43.619Z,3.17
2018-06-05T12:25:12.288Z,3.10
2018-06-05T12:27:40.693Z,3.83
2018-06-05T12:30:09.288Z,3.90
2018-06-05T12:32:37.881Z,3.92
2018-06-05T12:35:06.717Z,4.28
2018-06-05T12:37:35.337Z,3.50
2018-06-05T12:40:03.882Z,3.85
2018-06-05T12:42:32.278Z,3.20
2018-06-05T12:45:03.680Z,3.58
2018-06-05T12:47:32.145Z,3.05
2018-06-05T12:50:00.664Z,3.90
2018-06-05T12:52:29.242Z,2.87
2018-06-05T12:54:57.843Z,2.83
2018-06-05T12:57:26.279Z,3.05
2018-06-05T12:59:54.740Z,3.20
2018-06-05T13:02:23.222Z,2.98
2018-06-05T13:04:51.743Z,3.20
2018-06-05T13:07:20.251Z,3.80
2018-06-05T13:09:48.634Z,3.27
2018-06-05T13:12:17.011Z,3.30
2018-06-05T13:14:45.461Z,3.10
2018-06-05T13:17:14.189Z,3.17
2018-06-05T13:19:42.782Z,3.27
2018-06-05T13:22:11.153Z,3.50
2018-06-05T13:24:39.736Z,3.22
2018-06-05T13:27:08.808Z,3.58
2018-06-05T13:29:37.841Z,3.33
2018-06-05T13:32:06.260Z,3.30
2018-06-05T13:34:34.721Z,3.37
2018-06-05T13:37:03.354Z,3.70
2018-06-05T13:39:31.778Z,3.60
2018-06-05T13:42:00.303Z,3.25
2018-06-05T13:44:28.731Z,3.95
2018-06-05T13:46:57.242Z,3.80
2018-06-05T13:49:25.767Z,3.37
2018-06-05T13:51:54.263Z,3.33
2018-06-05T13:54:22.678Z,2.98
2018-06-05T13:56:51.156Z,3.75
2018-06-05T13:59:19.550Z,3.52
2018-06-05T14:01:48.031Z,3.05
2018-06-05T14:04:16.502Z,3.00
2018-06-05T14:06:45.018Z,3.22
2018-06-05T14:09:13.436Z,3.45
2018-06-05T14:11:41.954Z,3.52
2018-06-05T14:14:10.434Z,4.05
2018-06-05T14:16:39.102Z,4.08
2018-06-05T14:19:07.590Z,4.83
2018-06-05T14:21:36.130Z,5.05
2018-06-05T14:24:04.530Z,5.90
2018-06-05T14:26:33.024Z,4.67
2018-06-05T14:29:01.678Z,5.72
2018-06-05T14:31:30.207Z,4.65
2018-06-05T14:33:58.637Z,5.65
2018-06-05T14:36:27.070Z,5.00
2018-06-05T14:38:55.674Z,4.45
2018-06-05T14:41:24.066Z,4.80
2018-06-05T14:43:52.511Z,4.78
2018-06-05T14:46:21.011Z,4.30
2018-06-05T14:48:49.446Z,4.67
2018-06-05T14:51:17.963Z,4.90
2018-06-05T14:53:46.473Z,4.40
2018-06-05T14:56:14.949Z,4.42
2018-06-05T14:58:43.366Z,4.33
2018-06-05T15:01:11.769Z,4.47
2018-06-05T15:03:40.457Z,4.83
2018-06-05T15:06:08.924Z,4.70
2018-06-05T15:08:37.470Z,3.50
2018-06-05T15:11:05.974Z,4.10
2018-06-05T15:13:34.446Z,4.15
2018-06-05T15:16:02.894Z,4.50
2018-06-05T15:18:31.450Z,4.03
2018-06-05T15:21:00.054Z,3.92
2018-06-05T15:23:28.558Z,3.30
2018-06-05T15:25:58.169Z,3.00
2018-06-05T15:28:26.609Z,2.70
2018-06-05T15:30:55.165Z,3.15
2018-06-05T15:33:23.612Z,2.95
2018-06-05T15:35:52.066Z,2.80
2018-06-05T15:38:20.574Z,2.77
2018-06-05T15:40:49.162Z,3.05
2018-06-05T15:43:17.611Z,3.08
2018-06-05T15:45:46.071Z,2.67
2018-06-05T15:48:15.244Z,3.15
2018-06-05T15:50:43.680Z,3.00
2018-06-05T15:53:12.155Z,3.27
2018-06-05T15:55:40.629Z,3.15
2018-06-05T15:58:09.094Z,3.80
2018-06-05T16:00:37.894Z,3.50
2018-06-05T16:03:06.423Z,3.85
2018-06-05T16:05:34.849Z,3.47
2018-06-05T16:08:03.278Z,3.60
2018-06-05T16:10:31.757Z,3.55
2018-06-05T16:13:00.197Z,3.87
2018-06-05T16:15:28.671Z,3.27
2018-06-05T16:17:57.078Z,4.30
2018-06-05T16:20:25.868Z,3.15
2018-06-05T16:22:54.405Z,3.50
2018-06-05T16:25:22.795Z,3.62
2018-06-05T16:27:51.263Z,3.65
2018-06-05T16:30:19.703Z,3.33
2018-06-05T16:32:48.131Z,3.85
2018-06-05T16:35:16.653Z,3.20
2018-06-05T16:37:45.103Z,3.75
2018-06-05T16:40:13.599Z,3.65
2018-06-05T16:42:42.556Z,3.40
2018-06-05T16:45:11.399Z,4.42
2018-06-05T16:47:39.846Z,4.08
2018-06-05T16:50:08.328Z,4.33
2018-06-05T16:52:37.035Z,4.10
2018-06-05T16:55:05.643Z,3.80
2018-06-05T16:57:34.067Z,3.98
2018-06-05T17:00:07.320Z,4.67
2018-06-05T17:02:41.353Z,4.00
2018-06-05T17:05:12.795Z,4.67
2018-06-05T17:07:45.748Z,3.98
2018-06-05T17:10:17.300Z,3.90
2018-06-05T17:12:48.793Z,4.70
2018-06-05T17:15:20.114Z,4.83
2018-06-05T17:17:51.248Z,4.70
2018-06-05T17:20:23.318Z,4.37
2018-06-05T17:22:54.575Z,3.75
2018-06-05T17:25:27.559Z,4.58
2018-06-05T17:28:00.103Z,4.15
2018-06-05T17:30:32.257Z,5.22
2018-06-05T17:33:03.629Z,4.75
2018-06-05T17:35:35.833Z,4.35
2018-06-05T17:38:07.460Z,4.30
2018-06-05T17:40:39.660Z,4.28
2018-06-05T17:43:11.269Z,5.35
2018-06-05T17:45:41.902Z,5.15
2018-06-05T17:48:13.736Z,4.78
2018-06-05T17:50:45.211Z,5.05
2018-06-05T17:53:15.767Z,4.50
2018-06-05T17:55:46.676Z,4.75
2018-06-05T17:58:17.314Z,5.22
2018-06-05T18:00:48.545Z,5.47
2018-06-05T18:03:20.222Z,5.37
2018-06-05T18:05:51.139Z,5.40
2018-06-05T18:08:22.375Z,6.03
2018-06-05T18:10:52.500Z,5.30
2018-06-05T18:13:23.222Z,5.33
2018-06-05T18:15:54.371Z,5.12
2018-06-05T18:18:24.283Z,5.08
2018-06-05T18:20:54.304Z,5.55
2018-06-05T18:23:25.568Z,5.20
2018-06-05T18:25:56.985Z,6.12
2018-06-05T18:28:29.466Z,5.83
2018-06-05T18:31:06.220Z,5.62
2018-06-05T18:33:36.456Z,5.50
2018-06-05T18:36:08.103Z,5.60
2018-06-05T18:38:42.217Z,5.33
2018-06-05T18:41:12.523Z,5.22
2018-06-05T18:43:44.966Z,5.55
2018-06-05T18:46:17.294Z,6.20
2018-06-05T18:48:50.103Z,6.53
2018-06-05T18:51:21.318Z,5.53
2018-06-05T18:53:52.951Z,5.37
2018-06-05T18:56:24.025Z,5.92
2018-06-05T18:58:57.392Z,5.37
2018-06-05T19:01:28.735Z,5.67
2018-06-05T19:04:00.651Z,6.40
2018-06-05T19:06:32.144Z,5.95
2018-06-05T19:09:04.303Z,6.25
2018-06-05T19:11:35.845Z,6.28
2018-06-05T19:14:07.711Z,6.58
2018-06-05T19:16:39.564Z,6.58
2018-06-05T19:19:12.432Z,5.65
2018-06-05T19:21:44.006Z,6.80
2018-06-05T19:24:16.919Z,7.00
2018-06-05T19:26:48.541Z,6.58
2018-06-05T19:29:19.825Z,6.62
2018-06-05T19:31:51.133Z,5.87
2018-06-05T19:34:21.866Z,7.00
2018-06-05T19:36:55.716Z,6.33
2018-06-05T19:39:27.202Z,5.97
2018-06-05T19:41:57.750Z,5.67
2018-06-05T19:44:28.156Z,6.60
2018-06-05T19:46:59.209Z,6.67
2018-06-05T19:49:29.518Z,6.83
2018-06-05T19:51:59.890Z,6.40
2018-06-05T19:54:30.276Z,7.10
2018-06-05T19:57:03.457Z,7.83
2018-06-05T19:59:35.840Z,6.17
2018-06-05T20:02:07.582Z,6.92
2018-06-05T20:04:38.981Z,7.62
2018-06-05T20:07:10.598Z,8.50
2018-06-05T20:09:41.935Z,7.55
2018-06-05T20:12:14.543Z,8.23
2018-06-05T20:14:45.149Z,7.40
2018-06-05T20:17:17.308Z,8.05
2018-06-05T20:19:49.760Z,8.03
2018-06-05T20:22:20.740Z,8.03
2018-06-05T20:24:52.362Z,7.95
2018-06-05T20:27:24.127Z,8.00
2018-06-05T20:29:55.724Z,8.05
2018-06-05T20:32:26.812Z,7.90
2018-06-05T20:34:58.461Z,8.43
2018-06-05T20:37:31.039Z,9.75
2018-06-05T20:40:03.712Z,9.15
2018-06-05T20:42:40.084Z,8.98
2018-06-05T20:45:10.509Z,8.33
2018-06-05T20:47:43.086Z,8.50
2018-06-05T20:50:14.897Z,8.13
2018-06-05T20:52:46.902Z,8.15
2018-06-05T20:55:18.147Z,8.15
2018-06-05T20:57:49.888Z,7.92
2018-06-05T21:00:22.090Z,8.78
2018-06-05T21:02:50.726Z,8.20
2018-06-05T21:05:19.206Z,8.28
2018-06-05T21:07:47.658Z,8.90
2018-06-05T21:10:16.158Z,8.83
2018-06-05T21:12:44.587Z,8.88
2018-06-05T21:15:13.075Z,10.30
2018-06-05T21:17:41.536Z,8.38
2018-06-05T21:20:10.951Z,9.43
2018-06-05T21:22:39.479Z,8.73
2018-06-05T21:25:07.926Z,8.95
2018-06-05T21:27:36.402Z,9.28
2018-06-05T21:30:05.150Z,9.43
2018-06-05T21:32:33.678Z,9.68
2018-06-05T21:35:02.316Z,10.53
2018-06-05T21:37:30.749Z,10.40
2018-06-05T21:39:59.282Z,10.75
2018-06-05T21:42:28.390Z,10.48
2018-06-05T21:44:57.105Z,10.43
2018-06-05T21:47:25.590Z,10.53
2018-06-05T21:49:54.135Z,12.07
2018-06-05T21:52:22.558Z,10.70
2018-06-05T21:54:51.087Z,10.63
2018-06-05T21:57:19.488Z,10.80
2018-06-05T21:59:47.995Z,11.33
2018-06-05T22:02:16.455Z,11.80
2018-06-05T22:04:44.943Z,12.40
2018-06-05T22:07:13.435Z,11.33
2018-06-05T22:09:41.958Z,11.97
2018-06-05T22:12:10.770Z,11.63
2018-06-05T22:14:39.231Z,12.73
2018-06-05T22:17:07.686Z,10.90
2018-06-05T22:19:36.167Z,12.13
2018-06-05T22:22:04.576Z,12.00
2018-06-05T22:24:33.519Z,11.43
2018-06-05T22:27:02.235Z,11.40
2018-06-05T22:29:30.678Z,12.47
2018-06-05T22:31:59.178Z,11.70
2018-06-05T22:34:27.670Z,11.53
2018-06-05T22:36:56.398Z,12.00
2018-06-05T22:39:24.789Z,12.78
2018-06-05T22:41:53.488Z,11.67
2018-06-05T22:44:21.958Z,11.95
2018-06-05T22:46:50.382Z,11.57
2018-06-05T22:49:18.835Z,12.00
2018-06-05T22:51:47.340Z,12.53
2018-06-05T22:54:16.270Z,11.53
2018-06-05T22:56:44.718Z,11.97
2018-06-05T22:59:13.170Z,11.70
2018-06-05T23:01:41.719Z,11.20
2018-06-05T23:04:10.143Z,11.63
2018-06-05T23:06:38.646Z,11.25
2018-06-05T23:09:07.658Z,12.47
2018-06-05T23:11:36.151Z,12.70
2018-06-05T23:14:04.606Z,12.65
2018-06-05T23:16:33.068Z,13.38
2018-06-05T23:19:01.531Z,13.57
2018-06-05T23:21:30.101Z,11.15
2018-06-05T23:23:58.494Z,10.95
2018-06-05T23:26:26.987Z,11.25
2018-06-05T23:28:55.544Z,10.67
2018-06-05T23:31:23.964Z,12.33
2018-06-05T23:33:52.425Z,11.93
2018-06-05T23:36:20.928Z,12.25
2018-06-05T23:38:49.377Z,11.68
2018-06-05T23:41:17.758Z,11.57
2018-06-05T23:43:46.523Z,11.53
2018-06-05T23:46:14.917Z,11.53
2018-06-05T23:48:43.340Z,11.22
2018-06-05T23:51:11.777Z,12.30
2018-06-05T23:53:40.253Z,10.28
2018-06-05T23:56:08.643Z,11.07
2018-06-05T23:58:37.079Z,10.85
